LNG Finima II — ZCEQ4 — position and weather

sailwx.info

Track history (hours):
 
Tides and Currents Weather Stations Pressure Air Temp Water Temp Dewpoint Dewpoint Depression Visibility Wind Speed Wind Dir Waves Ship Positions

LNG Finima II

Last reported at 2018-Aug-07 03:34 UTC. Time now 2018-Aug-14 19:28 UTC.
Position S 34°48' E 018°26'.

Length 292 m; draft 11.6 m.

Type: Ship (hazmat cat A). MMSI: 310722000.

Date/timePositionNaut miles runAvg speedWind from/ knotsBaromVisibWave heightAir tempDewpointWater temp
2018-Aug-07 03:34S 34°48' E 018°26'417.5
2018-Aug-07 03:21S 34°46' E 018°21'2416.0
2018-Aug-07 01:50S 34°31' E 017°59'615.9
2018-Aug-07 01:29S 34°26' E 017°56'815.8
2018-Aug-07 01:00S 34°19' E 017°53'815.7
2018-Aug-07 00:29S 34°11' E 017°50'715.5
2018-Aug-07 00:00S 34°04' E 017°47'915.3
2018-Aug-06 23:25S 33°55' E 017°44'715.8
2018-Aug-06 23:00S 33°50' E 017°39'  
Track history (hours):
 
Tides and Currents Weather Stations Pressure Air Temp Water Temp Dewpoint Dewpoint Depression Visibility Wind Speed Wind Dir Waves Ship Positions

LNG Finima II

Last reported at 2018-Aug-07 03:34 UTC. Time now 2018-Aug-14 19:28 UTC.
Position S 34°48' E 018°26'.

Length 292 m; draft 11.6 m.

Type: Ship (hazmat cat A). MMSI: 310722000.

Date/timePositionNaut miles runAvg speedWind from/ knotsBaromVisibWave heightAir tempDewpointWater temp
2018-Aug-07 03:34S 34°48' E 018°26'417.5
2018-Aug-07 03:21S 34°46' E 018°21'2416.0
2018-Aug-07 01:50S 34°31' E 017°59'615.9
2018-Aug-07 01:29S 34°26' E 017°56'815.8
2018-Aug-07 01:00S 34°19' E 017°53'815.7
2018-Aug-07 00:29S 34°11' E 017°50'715.5
2018-Aug-07 00:00S 34°04' E 017°47'915.3
2018-Aug-06 23:25S 33°55' E 017°44'715.8
2018-Aug-06 23:00S 33°50' E 017°39'  

Dump ship's entire track history